createdAt,value
2022-08-17T00:00:42.900Z,11.90
2022-08-17T00:01:17.173Z,12.50
2022-08-17T00:02:26.341Z,12.10
2022-08-17T00:03:17.168Z,12.60
2022-08-17T00:04:17.005Z,12.70
2022-08-17T00:05:16.988Z,11.80
2022-08-17T00:06:16.971Z,12.70
2022-08-17T00:07:16.965Z,13.00
2022-08-17T00:08:16.936Z,12.20
2022-08-17T00:09:18.959Z,11.70
2022-08-17T00:10:16.901Z,12.70
2022-08-17T00:11:16.885Z,12.40
2022-08-17T00:12:40.598Z,12.20
2022-08-17T00:13:16.852Z,13.20
2022-08-17T00:14:16.834Z,12.40
2022-08-17T00:15:16.816Z,13.40
2022-08-17T00:16:16.799Z,13.00
2022-08-17T00:17:16.785Z,13.30
2022-08-17T00:19:01.527Z,13.70
2022-08-17T00:19:16.747Z,13.50
2022-08-17T00:20:16.733Z,13.80
2022-08-17T00:21:16.718Z,12.40
2022-08-17T00:22:33.078Z,13.20
2022-08-17T00:23:16.682Z,14.20
2022-08-17T00:24:16.667Z,12.60
2022-08-17T00:25:16.645Z,12.90
2022-08-17T00:26:16.631Z,13.20
2022-08-17T00:27:16.610Z,14.00
2022-08-17T00:28:16.597Z,13.40
2022-08-17T00:29:19.957Z,13.40
2022-08-17T00:30:16.565Z,13.70
2022-08-17T00:31:16.551Z,14.10
2022-08-17T00:33:13.797Z,13.00
2022-08-17T00:33:17.082Z,13.10
2022-08-17T00:34:16.493Z,13.10
2022-08-17T00:35:16.476Z,13.70
2022-08-17T00:36:16.460Z,12.90
2022-08-17T00:37:16.444Z,12.60
2022-08-17T00:38:16.427Z,13.50
2022-08-17T00:39:16.406Z,12.40
2022-08-17T00:40:16.456Z,12.30
2022-08-17T00:41:16.377Z,12.90
2022-08-17T00:42:16.372Z,13.20
2022-08-17T00:43:16.337Z,13.90
2022-08-17T00:44:16.325Z,12.60
2022-08-17T00:45:16.305Z,12.60
2022-08-17T00:46:16.288Z,12.10
2022-08-17T00:47:16.268Z,12.30
2022-08-17T00:48:29.357Z,12.50
2022-08-17T00:49:16.234Z,14.40
2022-08-17T00:50:16.222Z,13.10
2022-08-17T00:51:16.200Z,12.30
2022-08-17T00:52:16.183Z,12.50
2022-08-17T00:53:16.164Z,12.80
2022-08-17T00:54:16.151Z,14.20
2022-08-17T00:55:16.138Z,13.60
2022-08-17T00:56:16.116Z,13.50
2022-08-17T00:57:16.096Z,13.80
2022-08-17T00:58:16.081Z,12.80
2022-08-17T00:59:16.063Z,14.30
2022-08-17T01:00:16.071Z,13.50
2022-08-17T01:01:21.639Z,13.10
2022-08-17T01:02:16.016Z,13.80
2022-08-17T01:03:15.995Z,12.30
2022-08-17T01:04:15.978Z,13.70
2022-08-17T01:05:15.960Z,12.40
2022-08-17T01:06:15.945Z,12.60
2022-08-17T01:07:15.925Z,12.40
2022-08-17T01:08:15.909Z,13.50
2022-08-17T01:09:15.891Z,12.40
2022-08-17T01:10:58.157Z,13.30
2022-08-17T01:11:15.858Z,12.50
2022-08-17T01:12:15.842Z,12.90
2022-08-17T01:13:15.823Z,13.10
2022-08-17T01:14:15.808Z,14.10
2022-08-17T01:15:15.788Z,13.60
2022-08-17T01:16:15.773Z,14.60
2022-08-17T01:17:15.758Z,14.80
2022-08-17T01:18:15.739Z,14.50
2022-08-17T01:19:15.721Z,14.80
2022-08-17T01:20:15.705Z,15.40
2022-08-17T01:21:15.692Z,15.00
2022-08-17T01:22:15.670Z,15.30
2022-08-17T01:23:20.762Z,15.50
2022-08-17T01:24:15.636Z,16.40
2022-08-17T01:25:15.621Z,16.70
2022-08-17T01:26:15.602Z,16.60
2022-08-17T01:27:15.583Z,16.70
2022-08-17T01:28:52.510Z,15.50
2022-08-17T01:29:15.549Z,16.30
2022-08-17T01:30:58.930Z,17.00
2022-08-17T01:31:15.514Z,18.20
2022-08-17T01:32:15.498Z,18.60
2022-08-17T01:33:15.485Z,16.70
2022-08-17T01:34:15.463Z,15.90
2022-08-17T01:35:15.448Z,16.60
2022-08-17T01:36:15.433Z,17.50
2022-08-17T01:37:15.417Z,17.50
2022-08-17T01:38:15.398Z,16.90
2022-08-17T01:39:15.383Z,17.50
2022-08-17T01:40:15.402Z,15.60
2022-08-17T01:41:15.348Z,17.00
2022-08-17T01:42:15.332Z,16.20
2022-08-17T01:43:15.310Z,16.20
2022-08-17T01:44:15.292Z,16.30
2022-08-17T01:45:15.277Z,16.50
2022-08-17T01:46:15.257Z,16.60
2022-08-17T01:47:15.243Z,15.60
2022-08-17T01:48:15.223Z,15.50
2022-08-17T01:49:15.206Z,16.80
2022-08-17T01:50:15.187Z,15.10
2022-08-17T01:51:15.172Z,15.60
2022-08-17T01:52:15.157Z,14.20
2022-08-17T01:53:15.138Z,16.00
2022-08-17T01:54:15.119Z,15.10
2022-08-17T01:55:15.103Z,14.50
2022-08-17T01:56:15.087Z,14.80
2022-08-17T01:57:15.069Z,15.40
2022-08-17T01:58:15.055Z,15.10
2022-08-17T01:59:15.034Z,15.80
2022-08-17T02:00:15.016Z,14.20
2022-08-17T02:01:15.076Z,15.30
2022-08-17T02:02:31.210Z,14.80
2022-08-17T02:03:14.964Z,15.40
2022-08-17T02:04:14.946Z,14.80
2022-08-17T02:05:14.935Z,15.30
2022-08-17T02:06:27.106Z,15.60
2022-08-17T02:07:14.895Z,14.30
2022-08-17T02:08:20.163Z,14.50
2022-08-17T02:09:17.026Z,14.50
2022-08-17T02:10:18.934Z,14.10
2022-08-17T02:11:14.828Z,14.30
2022-08-17T02:12:37.785Z,15.20
2022-08-17T02:13:14.793Z,14.90
2022-08-17T02:14:14.775Z,15.50
2022-08-17T02:15:14.756Z,14.50
2022-08-17T02:16:14.743Z,13.90
2022-08-17T02:17:14.721Z,13.20
2022-08-17T02:18:14.704Z,14.80
2022-08-17T02:19:14.699Z,15.40
2022-08-17T02:20:14.671Z,14.80
2022-08-17T02:21:14.654Z,15.10
2022-08-17T02:22:14.634Z,15.00
2022-08-17T02:23:14.619Z,14.50
2022-08-17T02:24:14.600Z,15.80
2022-08-17T02:25:14.584Z,15.30
2022-08-17T02:26:24.197Z,14.90
2022-08-17T02:27:14.548Z,15.20
2022-08-17T02:28:14.531Z,15.30
2022-08-17T02:29:14.513Z,14.30
2022-08-17T02:31:02.154Z,14.40
2022-08-17T02:31:14.495Z,14.80
2022-08-17T02:32:14.460Z,14.30
2022-08-17T02:33:14.444Z,14.80
2022-08-17T02:34:14.427Z,14.20
2022-08-17T02:35:14.417Z,14.20
2022-08-17T02:36:14.389Z,14.70
2022-08-17T02:37:14.375Z,14.40
2022-08-17T02:38:14.356Z,14.60
2022-08-17T02:39:14.336Z,15.60
2022-08-17T02:40:14.380Z,16.10
2022-08-17T02:41:14.304Z,16.30
2022-08-17T02:42:14.286Z,15.20
2022-08-17T02:43:14.270Z,15.10
2022-08-17T02:44:14.252Z,14.70
2022-08-17T02:45:14.236Z,14.10
2022-08-17T02:46:14.214Z,15.20
2022-08-17T02:47:14.197Z,16.50
2022-08-17T02:48:14.177Z,15.90
2022-08-17T02:49:14.161Z,15.40
2022-08-17T02:50:14.143Z,15.90
2022-08-17T02:51:14.127Z,15.10
2022-08-17T02:52:14.110Z,14.30
2022-08-17T02:53:14.091Z,15.20
2022-08-17T02:54:41.713Z,15.20
2022-08-17T02:55:14.054Z,15.60
2022-08-17T02:56:14.036Z,15.20
2022-08-17T02:57:14.018Z,14.90
2022-08-17T02:58:14.007Z,16.00
2022-08-17T02:59:13.983Z,15.30
2022-08-17T03:00:13.964Z,14.10
2022-08-17T03:01:14.012Z,14.80
2022-08-17T03:02:13.930Z,14.30
2022-08-17T03:03:13.913Z,14.60
2022-08-17T03:04:13.894Z,15.50
2022-08-17T03:05:13.880Z,15.40
2022-08-17T03:06:13.859Z,15.40
2022-08-17T03:07:13.840Z,16.10
2022-08-17T03:08:13.822Z,16.00
2022-08-17T03:09:13.805Z,15.40
2022-08-17T03:10:13.786Z,15.30
2022-08-17T03:11:13.768Z,15.50
2022-08-17T03:12:13.751Z,15.70
2022-08-17T03:13:13.734Z,15.00
2022-08-17T03:14:13.716Z,15.20
2022-08-17T03:15:13.700Z,15.80
2022-08-17T03:16:13.679Z,15.90
2022-08-17T03:17:17.490Z,15.40
2022-08-17T03:18:19.304Z,15.40
2022-08-17T03:19:13.625Z,14.80
2022-08-17T03:20:13.614Z,15.70
2022-08-17T03:21:13.591Z,15.20
2022-08-17T03:22:47.939Z,14.90
2022-08-17T03:23:13.555Z,15.90
2022-08-17T03:24:13.534Z,15.10
2022-08-17T03:25:13.519Z,15.70
2022-08-17T03:26:15.621Z,15.40
2022-08-17T03:27:13.482Z,16.70
2022-08-17T03:28:13.464Z,15.50
2022-08-17T03:29:13.448Z,15.60
2022-08-17T03:30:13.427Z,15.40
2022-08-17T03:31:13.412Z,15.80
2022-08-17T03:32:13.391Z,15.30
2022-08-17T03:33:13.379Z,16.10
2022-08-17T03:34:13.357Z,16.50
2022-08-17T03:35:13.339Z,17.20
2022-08-17T03:36:13.320Z,16.40
2022-08-17T03:37:13.302Z,16.20
2022-08-17T03:38:15.145Z,17.10
2022-08-17T03:39:13.272Z,16.30
2022-08-17T03:40:13.349Z,17.00
2022-08-17T03:41:13.232Z,16.10
2022-08-17T03:42:14.333Z,15.70
2022-08-17T03:43:13.195Z,16.70
2022-08-17T03:44:13.175Z,16.40
2022-08-17T03:45:15.439Z,16.20
2022-08-17T03:46:28.979Z,17.00
2022-08-17T03:47:13.120Z,16.70
2022-08-17T03:48:13.108Z,17.50
2022-08-17T03:49:13.085Z,16.70
2022-08-17T03:50:13.067Z,16.90
2022-08-17T03:51:14.858Z,17.10
2022-08-17T03:52:13.034Z,16.20
2022-08-17T03:53:13.013Z,15.30
2022-08-17T03:54:12.994Z,16.90
2022-08-17T03:55:12.975Z,16.00
2022-08-17T03:56:12.958Z,16.70
2022-08-17T03:57:12.951Z,16.50
2022-08-17T03:58:12.921Z,15.30
2022-08-17T03:59:20.957Z,17.20
2022-08-17T04:00:12.886Z,16.90
2022-08-17T04:01:12.903Z,18.20
2022-08-17T04:02:12.850Z,17.70
2022-08-17T04:03:12.834Z,14.90
2022-08-17T04:04:12.810Z,15.90
2022-08-17T04:05:12.796Z,17.20
2022-08-17T04:06:12.778Z,17.30
2022-08-17T04:07:12.772Z,17.40
2022-08-17T04:08:12.739Z,17.40
2022-08-17T04:09:12.723Z,15.90
2022-08-17T04:10:12.704Z,18.10
2022-08-17T04:11:12.687Z,18.20
2022-08-17T04:12:12.667Z,19.30
2022-08-17T04:13:12.649Z,19.60
2022-08-17T04:14:12.631Z,19.50
2022-08-17T04:15:12.615Z,18.00
2022-08-17T04:16:12.595Z,19.30
2022-08-17T04:17:12.579Z,18.70
2022-08-17T04:18:12.559Z,18.90
2022-08-17T04:19:12.539Z,19.90
2022-08-17T04:20:12.521Z,17.40
2022-08-17T04:21:12.503Z,19.50
2022-08-17T04:22:33.121Z,18.30
2022-08-17T04:23:12.468Z,18.90
2022-08-17T04:24:12.448Z,19.10
2022-08-17T04:25:12.432Z,18.10
2022-08-17T04:26:12.414Z,18.80
2022-08-17T04:27:12.394Z,18.00
2022-08-17T04:28:16.019Z,17.20
2022-08-17T04:29:12.359Z,17.60
2022-08-17T04:30:12.341Z,17.60
2022-08-17T04:31:12.331Z,18.90
2022-08-17T04:32:12.302Z,18.50
2022-08-17T04:33:12.550Z,19.10
2022-08-17T04:34:12.269Z,18.10
2022-08-17T04:35:12.255Z,18.20
2022-08-17T04:36:12.231Z,19.80
2022-08-17T04:37:12.216Z,18.30
2022-08-17T04:38:12.232Z,19.30
2022-08-17T04:39:12.179Z,19.50
2022-08-17T04:40:12.205Z,18.30
2022-08-17T04:41:12.148Z,18.90
2022-08-17T04:42:12.122Z,18.30
2022-08-17T04:43:12.103Z,17.20
2022-08-17T04:44:12.086Z,19.00
2022-08-17T04:45:12.066Z,18.90
2022-08-17T04:46:12.047Z,18.40
2022-08-17T04:47:12.031Z,17.40
2022-08-17T04:48:12.011Z,19.20
2022-08-17T04:49:11.995Z,18.10
2022-08-17T04:50:11.975Z,19.00
2022-08-17T04:51:11.960Z,17.20
2022-08-17T04:52:29.690Z,19.00
2022-08-17T04:53:11.922Z,19.40
2022-08-17T04:54:11.905Z,18.50
2022-08-17T04:55:11.886Z,18.70
2022-08-17T04:56:16.607Z,17.00
2022-08-17T04:57:11.847Z,17.80
2022-08-17T04:58:11.836Z,18.70
2022-08-17T04:59:11.810Z,17.70
2022-08-17T05:00:11.794Z,19.80
2022-08-17T05:01:11.890Z,17.40
2022-08-17T05:02:11.760Z,18.90
2022-08-17T05:03:11.739Z,19.20
2022-08-17T05:04:33.398Z,19.10
2022-08-17T05:05:11.703Z,17.90
2022-08-17T05:06:11.684Z,18.60
2022-08-17T05:07:11.666Z,18.20
2022-08-17T05:08:11.645Z,17.40
2022-08-17T05:09:11.630Z,19.00
2022-08-17T05:10:11.610Z,17.60
2022-08-17T05:11:11.594Z,18.40
2022-08-17T05:12:11.577Z,18.40
2022-08-17T05:13:11.573Z,18.30
2022-08-17T05:14:11.539Z,18.30
2022-08-17T05:15:11.577Z,18.20
2022-08-17T05:16:11.516Z,17.70
2022-08-17T05:17:11.628Z,17.50
2022-08-17T05:18:11.466Z,18.30
2022-08-17T05:19:11.449Z,17.20
2022-08-17T05:20:11.431Z,17.60
2022-08-17T05:21:11.422Z,17.90
2022-08-17T05:22:11.399Z,18.80
2022-08-17T05:23:11.373Z,17.90
2022-08-17T05:24:38.609Z,18.30
2022-08-17T05:25:11.341Z,18.00
2022-08-17T05:26:11.677Z,17.30
2022-08-17T05:27:18.694Z,18.30
2022-08-17T05:28:11.281Z,17.70
2022-08-17T05:29:11.264Z,18.70
2022-08-17T05:30:11.245Z,18.30
2022-08-17T05:31:11.244Z,19.00
2022-08-17T05:32:38.287Z,18.80
2022-08-17T05:33:11.190Z,18.30
2022-08-17T05:34:11.171Z,18.70
2022-08-17T05:35:11.153Z,18.30
2022-08-17T05:36:11.137Z,18.00
2022-08-17T05:37:11.119Z,18.20
2022-08-17T05:38:11.103Z,18.60
2022-08-17T05:39:16.507Z,19.00
2022-08-17T05:40:11.125Z,18.70
2022-08-17T05:41:11.058Z,17.80
2022-08-17T05:42:11.026Z,18.00
2022-08-17T05:43:11.010Z,18.60
2022-08-17T05:44:10.998Z,18.90
2022-08-17T05:45:10.979Z,18.30
2022-08-17T05:46:10.955Z,19.00
2022-08-17T05:47:10.938Z,18.80
2022-08-17T05:48:10.919Z,18.10
2022-08-17T05:49:10.905Z,18.10
2022-08-17T05:50:10.892Z,17.80
2022-08-17T05:51:10.866Z,18.60
2022-08-17T05:52:10.851Z,18.70
2022-08-17T05:53:10.833Z,18.10
2022-08-17T05:54:10.817Z,17.40
2022-08-17T05:55:10.793Z,17.40
2022-08-17T05:56:29.465Z,16.40
2022-08-17T05:57:10.758Z,17.50
2022-08-17T05:58:10.738Z,17.70
2022-08-17T05:59:10.722Z,17.50
2022-08-17T06:00:10.703Z,17.60
2022-08-17T06:01:10.734Z,17.10
2022-08-17T06:02:10.668Z,17.40
2022-08-17T06:03:10.649Z,17.80
2022-08-17T06:04:10.636Z,17.70
2022-08-17T06:05:10.612Z,16.80
2022-08-17T06:06:10.595Z,17.70
2022-08-17T06:07:10.576Z,17.40
2022-08-17T06:08:10.564Z,17.60
2022-08-17T06:09:10.543Z,17.60
2022-08-17T06:10:10.527Z,16.40
2022-08-17T06:11:10.505Z,17.30
2022-08-17T06:12:12.907Z,18.00
2022-08-17T06:13:10.471Z,16.10
2022-08-17T06:14:10.453Z,16.50
2022-08-17T06:15:10.434Z,16.50
2022-08-17T06:16:25.939Z,16.90
2022-08-17T06:17:10.404Z,17.70
2022-08-17T06:18:10.382Z,16.00
2022-08-17T06:19:10.364Z,16.40
2022-08-17T06:20:10.348Z,16.70
2022-08-17T06:21:10.328Z,16.40
2022-08-17T06:22:10.311Z,15.90
2022-08-17T06:23:10.290Z,17.00
2022-08-17T06:24:10.276Z,16.00
2022-08-17T06:25:10.955Z,16.20
2022-08-17T06:26:10.240Z,17.00
2022-08-17T06:27:10.225Z,16.90
2022-08-17T06:28:13.874Z,16.60
2022-08-17T06:29:10.186Z,17.70
2022-08-17T06:30:10.172Z,17.10
2022-08-17T06:31:10.149Z,15.70
2022-08-17T06:32:10.135Z,15.40
2022-08-17T06:33:10.117Z,16.60
2022-08-17T06:34:10.100Z,16.40
2022-08-17T06:35:10.080Z,16.00
2022-08-17T06:36:10.117Z,17.10
2022-08-17T06:37:10.049Z,16.00
2022-08-17T06:38:10.029Z,16.10
2022-08-17T06:39:10.011Z,15.60
2022-08-17T06:40:10.023Z,15.70
2022-08-17T06:41:09.975Z,14.40
2022-08-17T06:42:09.960Z,15.70
2022-08-17T06:43:10.313Z,16.30
2022-08-17T06:44:09.940Z,17.10
2022-08-17T06:45:09.904Z,16.60
2022-08-17T06:46:09.887Z,14.90
2022-08-17T06:47:09.868Z,16.30
2022-08-17T06:48:09.855Z,15.60
2022-08-17T06:49:09.836Z,15.90
2022-08-17T06:50:09.817Z,15.80
2022-08-17T06:51:09.800Z,15.20
2022-08-17T06:52:09.784Z,15.30
2022-08-17T06:53:09.765Z,15.80
2022-08-17T06:54:09.751Z,14.70
2022-08-17T06:55:09.730Z,15.50
2022-08-17T06:56:09.722Z,14.90
2022-08-17T06:57:09.695Z,14.30
2022-08-17T06:58:16.003Z,14.30
2022-08-17T06:59:09.660Z,15.70
2022-08-17T07:00:09.641Z,14.80
2022-08-17T07:01:09.713Z,15.00
2022-08-17T07:02:09.610Z,14.20
2022-08-17T07:03:09.908Z,14.60
2022-08-17T07:04:11.701Z,15.60
2022-08-17T07:05:09.554Z,14.50
2022-08-17T07:06:09.539Z,13.30
2022-08-17T07:07:09.528Z,14.20
2022-08-17T07:08:09.505Z,15.00
2022-08-17T07:09:09.486Z,14.00
2022-08-17T07:10:09.468Z,12.70
2022-08-17T07:11:09.454Z,14.00
2022-08-17T07:12:09.437Z,13.80
2022-08-17T07:13:09.415Z,14.30
2022-08-17T07:14:11.835Z,12.80
2022-08-17T07:15:09.380Z,13.80
2022-08-17T07:16:09.368Z,13.60
2022-08-17T07:17:09.344Z,13.00
2022-08-17T07:18:09.327Z,14.30
2022-08-17T07:19:10.901Z,13.00
2022-08-17T07:20:09.294Z,13.20
2022-08-17T07:21:11.045Z,12.90
2022-08-17T07:22:09.266Z,14.60
2022-08-17T07:23:09.241Z,13.70
2022-08-17T07:24:09.225Z,13.70
2022-08-17T07:25:09.207Z,12.80
2022-08-17T07:26:09.191Z,12.90
2022-08-17T07:27:09.172Z,12.60
2022-08-17T07:28:09.155Z,12.10
2022-08-17T07:29:09.141Z,12.00
2022-08-17T07:30:10.804Z,12.80
2022-08-17T07:31:09.117Z,12.60
2022-08-17T07:32:09.088Z,12.40
2022-08-17T07:33:09.070Z,11.60
2022-08-17T07:34:09.057Z,11.50
2022-08-17T07:35:10.796Z,11.60
2022-08-17T07:36:09.018Z,11.10
2022-08-17T07:37:09.010Z,12.00
2022-08-17T07:38:24.957Z,11.90
2022-08-17T07:39:08.970Z,11.20
2022-08-17T07:40:16.229Z,9.30
2022-08-17T07:41:08.942Z,9.40
2022-08-17T07:42:08.918Z,10.80
2022-08-17T07:43:08.904Z,8.90
2022-08-17T07:44:08.884Z,9.20
2022-08-17T07:45:08.881Z,9.60
2022-08-17T07:46:08.856Z,9.80
2022-08-17T07:47:08.839Z,10.40
2022-08-17T07:48:08.815Z,9.70
2022-08-17T07:49:08.804Z,10.30
2022-08-17T07:50:08.789Z,9.70
2022-08-17T07:51:08.766Z,8.80
2022-08-17T07:52:48.275Z,9.30
2022-08-17T07:53:08.732Z,9.60
2022-08-17T07:54:14.604Z,9.30
2022-08-17T07:55:08.700Z,8.90
2022-08-17T07:56:08.701Z,9.00
2022-08-17T07:57:08.664Z,8.50
2022-08-17T07:58:08.649Z,8.80
2022-08-17T07:59:08.638Z,8.80
2022-08-17T08:00:08.615Z,8.50
2022-08-17T08:01:08.609Z,8.50
2022-08-17T08:02:08.625Z,8.00
2022-08-17T08:03:08.562Z,7.40
2022-08-17T08:04:08.548Z,8.60
2022-08-17T08:05:08.946Z,8.80
2022-08-17T08:06:08.513Z,9.40
2022-08-17T08:07:08.497Z,8.70
2022-08-17T08:08:08.481Z,9.70
2022-08-17T08:09:08.463Z,7.70
2022-08-17T08:10:08.448Z,8.90
2022-08-17T08:11:08.432Z,9.00
2022-08-17T08:12:08.414Z,9.00
2022-08-17T08:13:08.395Z,8.30
2022-08-17T08:14:08.381Z,8.60
2022-08-17T08:15:08.364Z,9.40
2022-08-17T08:16:08.348Z,8.80
2022-08-17T08:17:09.335Z,8.10
2022-08-17T08:18:08.314Z,8.90
2022-08-17T08:19:08.297Z,9.40
2022-08-17T08:20:52.496Z,9.30
2022-08-17T08:21:08.263Z,8.40
2022-08-17T08:22:08.255Z,8.80
2022-08-17T08:23:08.233Z,9.40
2022-08-17T08:24:08.215Z,8.20
2022-08-17T08:25:08.200Z,8.60
2022-08-17T08:26:08.186Z,9.40
2022-08-17T08:27:08.165Z,8.20
2022-08-17T08:28:08.146Z,8.50
2022-08-17T08:29:08.218Z,8.80
2022-08-17T08:30:08.115Z,8.10
2022-08-17T08:31:08.099Z,8.70
2022-08-17T08:32:08.083Z,8.50
2022-08-17T08:33:08.063Z,8.30
2022-08-17T08:34:08.050Z,8.90
2022-08-17T08:35:08.030Z,8.40
2022-08-17T08:36:08.021Z,8.10
2022-08-17T08:37:16.530Z,9.10
2022-08-17T08:38:07.986Z,8.10
2022-08-17T08:39:08.029Z,9.00
2022-08-17T08:40:07.995Z,8.00
2022-08-17T08:41:07.949Z,8.60
2022-08-17T08:42:07.924Z,9.40
2022-08-17T08:43:07.904Z,8.30
2022-08-17T08:44:07.884Z,8.50
2022-08-17T08:45:07.872Z,8.10
2022-08-17T08:46:07.851Z,8.80
2022-08-17T08:47:07.836Z,8.10
2022-08-17T08:48:12.769Z,7.60
2022-08-17T08:49:12.205Z,8.10
2022-08-17T08:50:07.789Z,8.50
2022-08-17T08:51:08.616Z,8.50
2022-08-17T08:52:07.757Z,7.90
2022-08-17T08:53:07.739Z,8.20
2022-08-17T08:54:07.723Z,7.80
2022-08-17T08:55:07.730Z,8.10
2022-08-17T08:56:07.699Z,7.50
2022-08-17T08:57:29.163Z,7.40
2022-08-17T08:58:07.662Z,7.30
2022-08-17T08:59:07.644Z,8.40
2022-08-17T09:00:07.625Z,7.60
2022-08-17T09:01:07.631Z,6.60
2022-08-17T09:02:07.594Z,7.20
2022-08-17T09:03:07.574Z,7.10
2022-08-17T09:04:23.417Z,7.60
2022-08-17T09:05:14.419Z,6.50
2022-08-17T09:06:28.855Z,7.50
2022-08-17T09:07:07.511Z,6.40
2022-08-17T09:08:07.498Z,6.60
2022-08-17T09:09:07.479Z,6.70
2022-08-17T09:10:07.465Z,6.30
2022-08-17T09:11:07.448Z,6.40
2022-08-17T09:12:07.432Z,6.60
2022-08-17T09:13:10.312Z,6.00
2022-08-17T09:14:07.402Z,7.00
2022-08-17T09:15:12.409Z,6.30
2022-08-17T09:16:07.370Z,5.70
2022-08-17T09:17:07.357Z,6.00
2022-08-17T09:19:00.007Z,5.90
2022-08-17T09:19:07.513Z,5.80
2022-08-17T09:20:07.306Z,5.80
2022-08-17T09:21:07.309Z,6.40
2022-08-17T09:22:07.276Z,6.30
2022-08-17T09:23:07.259Z,6.70
2022-08-17T09:24:07.245Z,6.80
2022-08-17T09:25:07.228Z,6.70
2022-08-17T09:26:07.212Z,6.00
2022-08-17T09:27:07.195Z,6.20
2022-08-17T09:28:07.181Z,6.70
2022-08-17T09:29:07.167Z,7.80
2022-08-17T09:30:07.148Z,7.40
2022-08-17T09:31:07.131Z,7.00
2022-08-17T09:32:07.118Z,6.80
2022-08-17T09:33:07.104Z,7.10
2022-08-17T09:34:07.089Z,7.20
2022-08-17T09:35:07.073Z,6.50
2022-08-17T09:36:07.062Z,7.00
2022-08-17T09:37:07.040Z,7.30
2022-08-17T09:38:07.033Z,6.70
2022-08-17T09:39:07.011Z,7.20
2022-08-17T09:40:07.076Z,7.00
2022-08-17T09:41:06.976Z,7.30
2022-08-17T09:42:06.962Z,7.00
2022-08-17T09:43:06.944Z,6.70
2022-08-17T09:44:10.736Z,7.50
2022-08-17T09:45:06.916Z,7.10
2022-08-17T09:46:06.902Z,7.10
2022-08-17T09:47:06.887Z,7.40
2022-08-17T09:48:06.873Z,7.50
2022-08-17T09:49:06.854Z,7.30
2022-08-17T09:50:06.838Z,7.70
2022-08-17T09:51:07.076Z,7.40
2022-08-17T09:52:06.805Z,7.20
2022-08-17T09:53:06.791Z,7.90
2022-08-17T09:54:37.147Z,7.60
2022-08-17T09:55:06.759Z,7.10
2022-08-17T09:56:06.747Z,7.10
2022-08-17T09:57:28.530Z,7.30
2022-08-17T09:58:06.712Z,7.30
2022-08-17T09:59:06.700Z,7.60
2022-08-17T10:00:06.683Z,8.00
2022-08-17T10:01:06.721Z,8.10
2022-08-17T10:02:06.654Z,7.80
2022-08-17T10:03:06.637Z,8.50
2022-08-17T10:04:06.619Z,7.00
2022-08-17T10:05:06.601Z,7.60
2022-08-17T10:06:06.834Z,8.10
2022-08-17T10:07:06.572Z,7.90
2022-08-17T10:08:06.555Z,7.00
2022-08-17T10:09:06.557Z,8.80
2022-08-17T10:10:09.654Z,7.70
2022-08-17T10:11:06.512Z,8.00
2022-08-17T10:12:06.506Z,7.90
2022-08-17T10:13:06.480Z,6.60
2022-08-17T10:14:24.097Z,7.40
2022-08-17T10:15:08.204Z,8.10
2022-08-17T10:16:06.438Z,7.70
2022-08-17T10:17:06.422Z,7.70
2022-08-17T10:18:06.401Z,7.10
2022-08-17T10:19:06.387Z,7.70
2022-08-17T10:20:06.371Z,7.10
2022-08-17T10:21:06.360Z,8.20
2022-08-17T10:22:32.321Z,7.20
2022-08-17T10:23:06.331Z,7.40
2022-08-17T10:24:06.313Z,7.20
2022-08-17T10:25:23.154Z,7.80
2022-08-17T10:26:06.286Z,7.30
2022-08-17T10:27:06.264Z,7.30
2022-08-17T10:28:06.247Z,7.60
2022-08-17T10:29:06.235Z,7.20
2022-08-17T10:30:06.219Z,7.00
2022-08-17T10:31:35.836Z,7.80
2022-08-17T10:32:06.187Z,7.00
2022-08-17T10:33:06.173Z,6.40
2022-08-17T10:34:06.156Z,6.30
2022-08-17T10:35:06.147Z,7.10
2022-08-17T10:36:10.572Z,7.20
2022-08-17T10:37:06.111Z,6.70
2022-08-17T10:38:06.096Z,6.90
2022-08-17T10:39:06.083Z,6.60
2022-08-17T10:40:06.133Z,6.60
2022-08-17T10:41:06.050Z,7.40
2022-08-17T10:42:06.036Z,7.40
2022-08-17T10:43:06.049Z,7.00
2022-08-17T10:44:39.247Z,7.20
2022-08-17T10:45:05.990Z,6.40
2022-08-17T10:46:10.671Z,7.00
2022-08-17T10:47:05.956Z,6.60
2022-08-17T10:48:07.034Z,6.30
2022-08-17T10:49:05.925Z,6.80
2022-08-17T10:50:05.911Z,6.70
2022-08-17T10:51:05.896Z,7.40
2022-08-17T10:52:05.880Z,6.40
2022-08-17T10:53:05.865Z,7.10
2022-08-17T10:54:05.847Z,7.50
2022-08-17T10:55:05.849Z,7.20
2022-08-17T10:56:05.821Z,7.20
2022-08-17T10:57:05.803Z,7.40
2022-08-17T10:58:05.786Z,7.00
2022-08-17T10:59:05.776Z,6.80
2022-08-17T11:00:05.756Z,7.60
2022-08-17T11:01:05.822Z,6.80
2022-08-17T11:02:05.723Z,6.40
2022-08-17T11:03:05.715Z,6.90
2022-08-17T11:04:05.693Z,7.50
2022-08-17T11:05:05.734Z,6.70
2022-08-17T11:06:05.662Z,6.50
2022-08-17T11:07:05.649Z,6.90
2022-08-17T11:08:05.648Z,6.00
2022-08-17T11:09:05.622Z,7.50
2022-08-17T11:10:05.603Z,7.30
2022-08-17T11:11:05.588Z,7.00
2022-08-17T11:12:05.570Z,6.70
2022-08-17T11:13:05.614Z,6.20
2022-08-17T11:14:05.541Z,7.10
2022-08-17T11:15:05.526Z,6.50
2022-08-17T11:16:08.413Z,6.80
2022-08-17T11:17:05.496Z,6.70
2022-08-17T11:18:05.482Z,6.60
2022-08-17T11:19:05.465Z,6.50
2022-08-17T11:20:05.460Z,6.80
2022-08-17T11:21:05.438Z,6.50
2022-08-17T11:22:05.418Z,6.20
2022-08-17T11:23:05.405Z,6.10
2022-08-17T11:24:05.404Z,6.80
2022-08-17T11:25:05.380Z,6.30
2022-08-17T11:26:05.357Z,5.90
2022-08-17T11:27:05.349Z,6.10
2022-08-17T11:28:05.330Z,5.90
2022-08-17T11:29:05.316Z,6.40
2022-08-17T11:30:05.308Z,6.10
2022-08-17T11:31:05.282Z,5.60
2022-08-17T11:32:05.265Z,6.10
2022-08-17T11:33:05.254Z,6.30
2022-08-17T11:34:05.238Z,5.60
2022-08-17T11:35:05.220Z,5.50
2022-08-17T11:36:05.202Z,6.20
2022-08-17T11:37:05.199Z,6.20
2022-08-17T11:38:05.179Z,6.40
2022-08-17T11:39:05.161Z,5.90
2022-08-17T11:40:05.217Z,6.90
2022-08-17T11:41:05.132Z,6.20
2022-08-17T11:42:05.111Z,7.40
2022-08-17T11:43:05.096Z,6.90
2022-08-17T11:44:05.080Z,6.80
2022-08-17T11:45:05.070Z,6.40
2022-08-17T11:46:05.060Z,5.90
2022-08-17T11:47:05.038Z,6.80
2022-08-17T11:49:05.012Z,5.60
2022-08-17T11:50:04.992Z,5.20
2022-08-17T11:51:04.980Z,6.10
2022-08-17T11:52:04.960Z,5.90
2022-08-17T11:53:04.946Z,6.40
2022-08-17T11:54:31.001Z,6.10
2022-08-17T11:55:31.820Z,5.50
2022-08-17T11:56:04.904Z,5.70
2022-08-17T11:57:04.883Z,6.40
2022-08-17T11:58:04.869Z,6.10
2022-08-17T11:59:04.855Z,6.30
2022-08-17T12:00:04.837Z,5.90
2022-08-17T12:01:05.999Z,5.80
2022-08-17T12:02:04.805Z,5.80
2022-08-17T12:03:04.858Z,5.90
2022-08-17T12:04:04.819Z,6.00
2022-08-17T12:05:04.760Z,5.40
2022-08-17T12:06:04.746Z,6.10
2022-08-17T12:07:04.740Z,6.20
2022-08-17T12:08:04.713Z,5.70
2022-08-17T12:09:04.700Z,5.20
2022-08-17T12:10:04.701Z,5.90
2022-08-17T12:11:04.666Z,6.00
2022-08-17T12:12:12.523Z,6.20
2022-08-17T12:13:04.637Z,5.60
2022-08-17T12:14:04.618Z,6.10
2022-08-17T12:15:12.399Z,5.90
2022-08-17T12:16:04.588Z,6.10
2022-08-17T12:17:04.579Z,6.00
2022-08-17T12:18:04.560Z,5.70
2022-08-17T12:19:04.543Z,5.80
2022-08-17T12:20:04.533Z,6.10
2022-08-17T12:21:04.513Z,5.90
2022-08-17T12:22:04.495Z,5.70
2022-08-17T12:23:04.497Z,6.00
2022-08-17T12:24:04.463Z,6.20
2022-08-17T12:25:04.451Z,6.30
2022-08-17T12:26:04.442Z,6.30
2022-08-17T12:27:04.420Z,6.80
2022-08-17T12:28:07.463Z,6.40
2022-08-17T12:29:04.389Z,6.10
2022-08-17T12:30:04.373Z,6.10
2022-08-17T12:31:04.358Z,6.10
2022-08-17T12:32:04.341Z,6.20
2022-08-17T12:33:04.326Z,6.40
2022-08-17T12:34:04.335Z,6.60
2022-08-17T12:35:04.299Z,6.40
2022-08-17T12:36:04.279Z,6.30
2022-08-17T12:37:04.266Z,6.70
2022-08-17T12:38:04.250Z,6.80
2022-08-17T12:39:13.985Z,6.70
2022-08-17T12:40:04.252Z,6.10
2022-08-17T12:41:04.207Z,7.10
2022-08-17T12:42:04.185Z,6.30
2022-08-17T12:43:04.174Z,7.00
2022-08-17T12:44:04.155Z,6.20
2022-08-17T12:45:04.145Z,6.10
2022-08-17T12:46:15.128Z,6.40
2022-08-17T12:47:04.118Z,6.00
2022-08-17T12:48:04.093Z,6.40
2022-08-17T12:49:04.081Z,6.80
2022-08-17T12:50:04.064Z,6.20
2022-08-17T12:51:04.061Z,6.10
2022-08-17T12:52:04.035Z,6.00
2022-08-17T12:53:04.017Z,6.10
2022-08-17T12:54:04.004Z,6.30
2022-08-17T12:55:03.992Z,6.30
2022-08-17T12:56:03.971Z,5.80
2022-08-17T12:57:03.955Z,5.70
2022-08-17T12:58:03.943Z,6.20
2022-08-17T12:59:03.939Z,6.70
2022-08-17T13:00:03.910Z,7.40
2022-08-17T13:01:03.895Z,7.20
2022-08-17T13:02:04.040Z,7.70
2022-08-17T13:03:03.863Z,8.00
2022-08-17T13:04:03.847Z,7.60